Time;durP1;ratioP1;P1;durP2;ratioP2;P2;SDS_P1;SDS_P2;PMS_P1;PMS_P2;Temp;Humidity;BMP_temperature;BMP_pressure;BME280_temperature;BME280_humidity;BME280_pressure;Samples;Min_cycle;Max_cycle;Signal;HPM_P1;HPM_P2
2021/12/22 00:02:02;;;;;;;28.88;15.63;;;;;;;;;;5096337;28;20031;-72
2021/12/22 00:04:30;;;;;;;24.35;15.35;;;;;;;;;;5095826;28;20059;-72
2021/12/22 00:06:56;;;;;;;28.95;13.80;;;;;;;;;;5096521;28;20024;-72
2021/12/22 00:09:22;;;;;;;26.45;12.50;;;;;;;;;;5094811;28;20418;-72
2021/12/22 00:11:49;;;;;;;21.67;10.27;;;;;;;;;;5095619;28;20028;-72
2021/12/22 00:14:16;;;;;;;20.45;9.48;;;;;;;;;;5095897;28;20468;-72
2021/12/22 00:16:42;;;;;;;21.40;10.25;;;;;;;;;;5095487;28;20150;-72
2021/12/22 00:19:09;;;;;;;22.67;9.93;;;;;;;;;;5095448;28;20066;-72
2021/12/22 00:21:35;;;;;;;23.10;11.25;;;;;;;;;;5095889;28;20024;-72
2021/12/22 00:24:01;;;;;;;21.08;10.85;;;;;;;;;;5095849;28;20093;-72
2021/12/22 00:26:28;;;;;;;26.27;13.63;;;;;;;;;;5095500;28;20043;-72
2021/12/22 00:28:54;;;;;;;26.67;13.43;;;;;;;;;;5094567;28;20028;-72
2021/12/22 00:31:22;;;;;;;21.38;11.18;;;;;;;;;;5095678;28;20031;-72
2021/12/22 00:33:50;;;;;;;23.70;12.00;;;;;;;;;;5095381;28;20020;-72
2021/12/22 00:36:17;;;;;;;24.77;13.15;;;;;;;;;;5095889;28;20540;-72
2021/12/22 00:38:44;;;;;;;23.73;13.38;;;;;;;;;;5095584;28;20035;-72
2021/12/22 00:41:10;;;;;;;31.17;15.07;;;;;;;;;;5095046;28;20034;-72
2021/12/22 00:43:36;;;;;;;21.52;14.13;;;;;;;;;;5095374;28;20027;-72
2021/12/22 00:46:04;;;;;;;28.02;17.20;;;;;;;;;;5095562;28;20032;-72
2021/12/22 00:48:30;;;;;;;30.58;14.80;;;;;;;;;;5095294;28;20055;-73
2021/12/22 00:50:57;;;;;;;23.95;13.95;;;;;;;;;;5095332;28;20024;-72
2021/12/22 00:53:23;;;;;;;28.52;13.75;;;;;;;;;;5094871;28;20086;-72
2021/12/22 00:55:50;;;;;;;26.45;15.77;;;;;;;;;;5095488;28;20020;-71
2021/12/22 00:58:16;;;;;;;32.97;17.63;;;;;;;;;;5095138;28;20031;-72
2021/12/22 01:00:45;;;;;;;28.23;14.43;;;;;;;;;;5094773;28;20481;-72
2021/12/22 01:03:11;;;;;;;31.17;16.10;;;;;;;;;;5095331;28;20357;-72
2021/12/22 01:05:38;;;;;;;30.77;15.88;;;;;;;;;;5094947;28;20098;-72
2021/12/22 01:08:04;;;;;;;28.55;15.07;;;;;;;;;;5094487;28;20020;-72
2021/12/22 01:10:30;;;;;;;32.05;17.38;;;;;;;;;;5094928;28;20123;-72
2021/12/22 01:12:58;;;;;;;25.77;16.15;;;;;;;;;;5095083;28;20099;-72
2021/12/22 01:15:25;;;;;;;26.10;15.73;;;;;;;;;;5094461;28;20035;-72
2021/12/22 01:17:59;;;;;;;27.60;15.00;;;;;;;;;;5094744;28;20028;-72
2021/12/22 01:20:39;;;;;;;37.95;18.05;;;;;;;;;;5094916;28;20024;-72
2021/12/22 01:23:07;;;;;;;31.52;17.30;;;;;;;;;;5093037;28;20070;-71
2021/12/22 01:25:42;;;;;;;35.40;20.05;;;;;;;;;;5094501;28;20024;-72
2021/12/22 01:28:09;;;;;;;34.83;15.98;;;;;;;;;;5094151;28;20028;-72
2021/12/22 01:30:42;;;;;;;32.15;13.50;;;;;;;;;;5093939;28;20472;-72
2021/12/22 01:33:08;;;;;;;26.07;9.13;;;;;;;;;;5094512;28;20031;-72
2021/12/22 01:35:35;;;;;;;16.05;7.90;;;;;;;;;;5094010;28;20445;-72
2021/12/22 01:38:02;;;;;;;22.35;9.30;;;;;;;;;;5094573;28;20024;-72
2021/12/22 01:40:29;;;;;;;20.65;10.73;;;;;;;;;;5094265;28;20502;-72
2021/12/22 01:42:56;;;;;;;21.50;10.38;;;;;;;;;;5094009;28;20353;-72
2021/12/22 01:51:29;;;;;;;39.53;18.10;;;;;;;;;;5093814;28;20154;-72
2021/12/22 01:53:59;;;;;;;33.65;16.77;;;;;;;;;;5094048;28;20024;-71
2021/12/22 01:56:28;;;;;;;29.13;15.02;;;;;;;;;;5092589;28;20016;-71
2021/12/22 01:58:55;;;;;;;24.40;13.50;;;;;;;;;;5094082;28;20536;-71
2021/12/22 02:01:23;;;;;;;20.00;7.07;;;;;;;;;;5093922;28;20461;-72
2021/12/22 02:03:50;;;;;;;16.83;6.20;;;;;;;;;;5093458;28;20032;-72
2021/12/22 02:06:17;;;;;;;20.95;9.02;;;;;;;;;;5093845;28;20024;-72
2021/12/22 02:08:44;;;;;;;22.63;10.75;;;;;;;;;;5093816;28;20020;-72
2021/12/22 02:11:11;;;;;;;23.35;11.57;;;;;;;;;;5093387;28;20028;-72
2021/12/22 02:13:39;;;;;;;26.88;12.30;;;;;;;;;;5093948;28;20028;-71
2021/12/22 02:16:09;;;;;;;26.48;11.85;;;;;;;;;;5093746;28;20028;-71
2021/12/22 02:18:36;;;;;;;20.27;9.77;;;;;;;;;;5093563;28;20104;-72
2021/12/22 02:21:04;;;;;;;20.08;9.60;;;;;;;;;;5093755;28;20020;-72
2021/12/22 02:23:30;;;;;;;23.05;11.27;;;;;;;;;;5093716;28;20135;-72
2021/12/22 02:26:02;;;;;;;16.38;10.02;;;;;;;;;;5093122;28;20039;-71
2021/12/22 02:28:32;;;;;;;19.23;9.23;;;;;;;;;;5093731;28;20020;-72
2021/12/22 02:30:59;;;;;;;16.27;7.40;;;;;;;;;;5094087;28;20031;-71
2021/12/22 02:33:34;;;;;;;19.98;10.00;;;;;;;;;;5093195;28;20384;-72
2021/12/22 02:38:33;;;;;;;18.63;9.75;;;;;;;;;;5093508;28;20020;-72
2021/12/22 02:40:59;;;;;;;16.58;9.20;;;;;;;;;;5092851;28;20079;-72
2021/12/22 02:43:31;;;;;;;17.17;8.70;;;;;;;;;;5093532;28;20067;-71
2021/12/22 02:45:57;;;;;;;16.67;7.00;;;;;;;;;;5093181;28;20055;-72
2021/12/22 02:48:27;;;;;;;21.35;11.30;;;;;;;;;;5093373;28;20482;-72
2021/12/22 02:50:55;;;;;;;19.73;9.68;;;;;;;;;;5093386;28;20028;-72
2021/12/22 02:53:26;;;;;;;16.58;7.00;;;;;;;;;;5092997;28;20420;-72
2021/12/22 02:56:01;;;;;;;17.27;6.82;;;;;;;;;;5093424;28;20024;-71
2021/12/22 02:58:58;;;;;;;15.13;8.02;;;;;;;;;;5093751;28;20126;-71
2021/12/22 03:04:03;;;;;;;21.38;7.55;;;;;;;;;;5093154;28;20495;-72
2021/12/22 03:06:36;;;;;;;22.75;7.95;;;;;;;;;;5093246;28;20147;-72
2021/12/22 03:09:19;;;;;;;15.65;6.53;;;;;;;;;;5092738;28;20048;-71
2021/12/22 03:11:45;;;;;;;16.50;6.60;;;;;;;;;;5093160;28;20480;-71
2021/12/22 03:14:12;;;;;;;12.85;7.40;;;;;;;;;;5092910;28;20030;-71
2021/12/22 03:16:42;;;;;;;15.95;7.35;;;;;;;;;;5093241;28;20027;-72
2021/12/22 03:19:08;;;;;;;12.60;7.03;;;;;;;;;;5093611;28;20431;-72
2021/12/22 03:21:34;;;;;;;12.02;6.28;;;;;;;;;;5092684;28;20469;-73
2021/12/22 03:24:01;;;;;;;12.15;6.25;;;;;;;;;;5092902;28;20036;-71
2021/12/22 03:26:29;;;;;;;10.95;5.80;;;;;;;;;;5092993;28;20020;-71
2021/12/22 03:28:55;;;;;;;13.65;6.15;;;;;;;;;;5092565;28;20021;-71
2021/12/22 03:31:22;;;;;;;11.32;6.25;;;;;;;;;;5093136;28;20035;-71
2021/12/22 03:33:48;;;;;;;15.65;7.50;;;;;;;;;;5092953;28;20100;-71
2021/12/22 03:36:14;;;;;;;17.58;9.45;;;;;;;;;;5092487;28;20035;-72
2021/12/22 03:38:42;;;;;;;15.80;7.28;;;;;;;;;;5092856;28;20173;-71
2021/12/22 03:41:09;;;;;;;13.52;5.45;;;;;;;;;;5093135;28;20028;-72
2021/12/22 03:43:36;;;;;;;13.90;6.75;;;;;;;;;;5092194;28;20487;-71
2021/12/22 03:46:03;;;;;;;16.50;7.60;;;;;;;;;;5093036;28;20036;-71
2021/12/22 03:48:29;;;;;;;16.70;7.53;;;;;;;;;;5092789;28;20035;-73
2021/12/22 03:50:56;;;;;;;19.67;9.13;;;;;;;;;;5092332;28;20024;-72
2021/12/22 03:53:23;;;;;;;27.15;12.27;;;;;;;;;;5096132;28;20024;-71
2021/12/22 03:55:49;;;;;;;28.52;11.23;;;;;;;;;;5096773;28;20012;-71
2021/12/22 03:58:15;;;;;;;29.08;12.77;;;;;;;;;;5095928;28;20429;-71
2021/12/22 04:00:42;;;;;;;24.27;12.13;;;;;;;;;;5096318;28;20024;-72
2021/12/22 04:03:16;;;;;;;24.02;10.05;;;;;;;;;;5095833;28;20070;-72
2021/12/22 04:05:42;;;;;;;23.88;10.32;;;;;;;;;;5096431;28;20514;-72
2021/12/22 04:08:10;;;;;;;20.23;9.23;;;;;;;;;;5096157;28;20426;-72
2021/12/22 04:10:37;;;;;;;19.25;9.13;;;;;;;;;;5095901;28;20024;-72
2021/12/22 04:13:03;;;;;;;16.92;7.70;;;;;;;;;;5096324;28;20016;-71
2021/12/22 04:15:31;;;;;;;15.55;7.22;;;;;;;;;;5096016;28;20020;-71
2021/12/22 04:17:57;;;;;;;18.38;7.97;;;;;;;;;;5095552;28;20016;-71
2021/12/22 04:20:24;;;;;;;24.92;9.23;;;;;;;;;;5095847;28;20020;-71
2021/12/22 04:22:50;;;;;;;33.70;10.65;;;;;;;;;;5095849;28;20070;-72
2021/12/22 04:25:20;;;;;;;34.42;9.75;;;;;;;;;;5095257;28;20468;-71
2021/12/22 04:27:48;;;;;;;21.23;8.60;;;;;;;;;;5096184;28;20016;-71
2021/12/22 04:30:14;;;;;;;15.40;7.85;;;;;;;;;;5095929;28;20529;-71
2021/12/22 04:32:41;;;;;;;26.83;9.73;;;;;;;;;;5095225;28;20046;-71
2021/12/22 04:35:07;;;;;;;24.75;9.82;;;;;;;;;;5095953;28;20069;-71
2021/12/22 04:37:33;;;;;;;19.58;9.27;;;;;;;;;;5095807;28;20030;-71
2021/12/22 04:39:59;;;;;;;20.90;10.00;;;;;;;;;;5095198;28;20028;-71
2021/12/22 04:42:26;;;;;;;19.92;9.77;;;;;;;;;;5095476;28;20027;-72
2021/12/22 04:44:54;;;;;;;20.92;10.05;;;;;;;;;;5095165;28;20122;-72
2021/12/22 04:47:21;;;;;;;27.50;12.45;;;;;;;;;;5094941;28;20117;-72
2021/12/22 04:49:48;;;;;;;22.23;11.50;;;;;;;;;;5095411;28;20033;-73
2021/12/22 04:52:17;;;;;;;19.95;10.52;;;;;;;;;;5095058;28;20023;-71
2021/12/22 04:57:12;;;;;;;30.05;13.43;;;;;;;;;;5095254;28;20063;-71
2021/12/22 04:59:39;;;;;;;37.33;16.45;;;;;;;;;;5094841;28;20499;-71
2021/12/22 05:02:05;;;;;;;36.55;17.42;;;;;;;;;;5094921;28;20480;-72
2021/12/22 05:04:31;;;;;;;39.92;19.27;;;;;;;;;;5094953;28;20028;-73
2021/12/22 05:06:57;;;;;;;43.33;21.13;;;;;;;;;;5093658;28;20027;-70
2021/12/22 05:09:23;;;;;;;34.13;15.88;;;;;;;;;;5092772;28;20376;-71
2021/12/22 05:11:51;;;;;;;25.88;12.27;;;;;;;;;;5093777;28;20024;-72
2021/12/22 05:14:17;;;;;;;30.17;14.35;;;;;;;;;;5094650;28;20024;-72
2021/12/22 05:16:48;;;;;;;21.70;12.80;;;;;;;;;;5094789;28;20035;-71
2021/12/22 05:19:15;;;;;;;25.05;13.52;;;;;;;;;;5094364;28;20125;-71
2021/12/22 05:21:42;;;;;;;24.35;13.60;;;;;;;;;;5093433;28;20024;-71
2021/12/22 05:24:08;;;;;;;16.23;10.23;;;;;;;;;;5094381;28;20024;-69
2021/12/22 05:26:36;;;;;;;15.10;7.57;;;;;;;;;;5093332;28;20066;-69
2021/12/22 05:29:02;;;;;;;15.55;7.82;;;;;;;;;;5094191;28;20020;-69
2021/12/22 05:31:28;;;;;;;22.40;11.20;;;;;;;;;;5094440;28;20058;-69
2021/12/22 05:33:56;;;;;;;30.65;14.38;;;;;;;;;;5094499;28;20017;-69
2021/12/22 05:36:22;;;;;;;32.60;13.07;;;;;;;;;;5092634;28;20112;-69
2021/12/22 05:38:49;;;;;;;41.40;16.35;;;;;;;;;;5093086;28;20027;-69
2021/12/22 05:41:15;;;;;;;33.70;16.08;;;;;;;;;;5094352;28;20070;-69
2021/12/22 05:43:41;;;;;;;47.00;21.40;;;;;;;;;;5093574;28;20024;-69
2021/12/22 05:46:07;;;;;;;45.40;21.83;;;;;;;;;;5094468;28;20078;-69
2021/12/22 05:48:33;;;;;;;53.13;23.40;;;;;;;;;;5093838;28;20020;-70
2021/12/22 05:51:01;;;;;;;53.85;24.33;;;;;;;;;;5094107;28;20035;-69
2021/12/22 05:53:28;;;;;;;94.75;40.33;;;;;;;;;;5094173;28;20454;-69
2021/12/22 05:55:55;;;;;;;69.38;33.53;;;;;;;;;;5093703;28;20024;-69
2021/12/22 05:58:22;;;;;;;63.85;32.67;;;;;;;;;;5094080;28;20020;-70
2021/12/22 06:00:48;;;;;;;62.08;33.05;;;;;;;;;;5093698;28;20561;-66
2021/12/22 06:03:15;;;;;;;63.72;32.30;;;;;;;;;;5093544;28;20415;-67
2021/12/22 06:05:41;;;;;;;65.47;34.78;;;;;;;;;;5092097;28;20040;-69
2021/12/22 06:08:08;;;;;;;67.00;35.40;;;;;;;;;;5093365;28;20099;-68
2021/12/22 06:10:34;;;;;;;74.20;37.80;;;;;;;;;;5092390;28;20024;-69
2021/12/22 06:13:08;;;;;;;76.75;34.78;;;;;;;;;;5093526;28;20038;-69
2021/12/22 06:15:35;;;;;;;99.53;43.22;;;;;;;;;;5093205;28;20042;-69
2021/12/22 06:18:04;;;;;;;118.45;50.42;;;;;;;;;;5093549;28;20028;-71
2021/12/22 06:20:31;;;;;;;106.85;49.53;;;;;;;;;;5093561;28;20129;-70
2021/12/22 06:22:58;;;;;;;132.38;55.33;;;;;;;;;;5093268;28;20024;-69
2021/12/22 06:25:24;;;;;;;108.35;47.25;;;;;;;;;;5091566;28;20369;-70
2021/12/22 06:27:50;;;;;;;112.95;50.05;;;;;;;;;;5093874;28;20020;-69
2021/12/22 06:30:18;;;;;;;117.38;51.60;;;;;;;;;;5093315;28;20024;-69
2021/12/22 06:32:45;;;;;;;81.13;41.10;;;;;;;;;;5091517;28;20016;-70
2021/12/22 06:35:11;;;;;;;85.68;42.35;;;;;;;;;;5089662;28;20032;-71
2021/12/22 06:37:37;;;;;;;88.90;43.17;;;;;;;;;;5092162;28;20030;-69
2021/12/22 06:40:05;;;;;;;78.30;37.95;;;;;;;;;;5090684;28;20031;-70
2021/12/22 06:42:32;;;;;;;74.20;39.92;;;;;;;;;;5093143;28;20020;-71
2021/12/22 06:44:58;;;;;;;81.78;42.58;;;;;;;;;;5092416;28;20048;-71
2021/12/22 06:47:25;;;;;;;102.80;50.28;;;;;;;;;;5091411;28;20495;-72
2021/12/22 06:49:51;;;;;;;86.03;43.22;;;;;;;;;;5093238;28;20082;-71
2021/12/22 06:52:17;;;;;;;57.85;31.50;;;;;;;;;;5093440;28;20028;-73
2021/12/22 06:54:43;;;;;;;124.47;51.13;;;;;;;;;;5092146;28;20020;-68
2021/12/22 06:57:10;;;;;;;90.25;39.22;;;;;;;;;;5092994;28;20372;-70
2021/12/22 06:59:36;;;;;;;71.10;32.83;;;;;;;;;;5092516;28;20028;-69
2021/12/22 07:02:02;;;;;;;54.85;27.35;;;;;;;;;;5091638;28;20099;-70
2021/12/22 07:04:28;;;;;;;40.38;22.02;;;;;;;;;;5092763;28;20115;-70
2021/12/22 07:06:55;;;;;;;34.45;17.13;;;;;;;;;;5092736;28;20105;-71
2021/12/22 07:09:21;;;;;;;26.08;15.45;;;;;;;;;;5092934;28;20028;-73
2021/12/22 07:11:47;;;;;;;24.67;14.50;;;;;;;;;;5089993;28;20024;-70
2021/12/22 07:14:13;;;;;;;22.65;15.25;;;;;;;;;;5096349;28;20036;-68
2021/12/22 07:16:40;;;;;;;30.98;16.38;;;;;;;;;;5092564;28;20419;-69
2021/12/22 07:19:06;;;;;;;31.83;17.50;;;;;;;;;;5092560;28;20024;-69
2021/12/22 07:21:32;;;;;;;51.97;25.40;;;;;;;;;;5092099;28;20413;-72
2021/12/22 07:23:58;;;;;;;50.97;26.23;;;;;;;;;;5092725;28;20473;-70
2021/12/22 07:26:25;;;;;;;38.83;21.95;;;;;;;;;;5092859;28;20082;-70
2021/12/22 07:28:51;;;;;;;37.90;20.60;;;;;;;;;;5094879;28;20031;-68
2021/12/22 07:31:17;;;;;;;42.85;21.85;;;;;;;;;;5094713;28;20030;-69
2021/12/22 07:33:47;;;;;;;33.10;18.80;;;;;;;;;;5095300;28;20016;-67
2021/12/22 07:36:13;;;;;;;39.58;22.63;;;;;;;;;;5095124;28;20021;-66
2021/12/22 07:38:40;;;;;;;27.70;16.48;;;;;;;;;;5096355;28;20051;-66
2021/12/22 07:41:06;;;;;;;34.20;19.75;;;;;;;;;;5095634;28;20039;-67
2021/12/22 07:43:33;;;;;;;37.58;19.17;;;;;;;;;;5095236;28;20028;-68
2021/12/22 07:46:00;;;;;;;35.42;20.77;;;;;;;;;;5096158;28;20032;-67
2021/12/22 07:48:26;;;;;;;45.83;24.23;;;;;;;;;;5095587;28;20028;-68
2021/12/22 07:50:53;;;;;;;38.28;21.42;;;;;;;;;;5089642;28;20035;-68
2021/12/22 07:53:19;;;;;;;53.47;26.40;;;;;;;;;;5094523;28;20030;-68
2021/12/22 07:55:46;;;;;;;46.88;23.23;;;;;;;;;;5093097;28;20028;-68
2021/12/22 07:58:13;;;;;;;44.15;24.80;;;;;;;;;;5091798;28;20028;-68
2021/12/22 08:00:39;;;;;;;34.08;19.95;;;;;;;;;;5092557;28;20103;-68
2021/12/22 08:03:11;;;;;;;27.13;14.60;;;;;;;;;;5093899;28;20369;-68
2021/12/22 08:05:38;;;;;;;20.25;10.07;;;;;;;;;;5093818;28;20024;-68
2021/12/22 08:08:04;;;;;;;21.17;13.57;;;;;;;;;;5094267;28;20024;-69
2021/12/22 08:10:31;;;;;;;13.80;8.75;;;;;;;;;;5092874;28;20434;-68
2021/12/22 08:12:57;;;;;;;17.35;9.18;;;;;;;;;;5093467;28;20020;-69
2021/12/22 08:15:27;;;;;;;15.68;9.50;;;;;;;;;;5091072;28;20055;-69
2021/12/22 08:17:53;;;;;;;13.75;8.40;;;;;;;;;;5090629;28;20028;-70
2021/12/22 08:20:20;;;;;;;15.43;7.68;;;;;;;;;;5088707;28;20574;-69
2021/12/22 08:22:46;;;;;;;18.40;8.75;;;;;;;;;;5086595;28;20024;-68
2021/12/22 08:25:12;;;;;;;26.13;13.85;;;;;;;;;;5081283;28;20050;-68
2021/12/22 08:27:39;;;;;;;29.20;13.95;;;;;;;;;;5071331;28;20031;-68
2021/12/22 08:30:06;;;;;;;27.50;14.57;;;;;;;;;;5072878;28;20035;-68
2021/12/22 08:32:33;;;;;;;25.77;14.98;;;;;;;;;;5072456;28;20017;-68
2021/12/22 08:34:59;;;;;;;26.50;13.57;;;;;;;;;;5072943;28;20028;-69
2021/12/22 08:40:14;;;;;;;25.70;13.70;;;;;;;;;;5071950;28;20074;-69
2021/12/22 08:42:41;;;;;;;27.35;15.38;;;;;;;;;;5078886;28;20113;-69
2021/12/22 08:45:07;;;;;;;36.38;17.85;;;;;;;;;;5093039;28;20051;-69
2021/12/22 08:47:34;;;;;;;27.42;17.05;;;;;;;;;;5092899;28;20024;-69
2021/12/22 08:50:00;;;;;;;25.83;15.85;;;;;;;;;;5093905;28;20338;-67
2021/12/22 08:52:26;;;;;;;32.03;18.52;;;;;;;;;;5094531;28;20047;-67
2021/12/22 08:54:52;;;;;;;28.83;19.27;;;;;;;;;;5093293;28;20495;-66
2021/12/22 08:57:18;;;;;;;34.20;20.55;;;;;;;;;;5093429;28;20032;-67
2021/12/22 08:59:45;;;;;;;39.53;23.75;;;;;;;;;;5093968;28;20128;-69
2021/12/22 09:02:12;;;;;;;31.55;20.88;;;;;;;;;;5093092;28;20089;-68
2021/12/22 09:04:38;;;;;;;35.17;23.95;;;;;;;;;;5093982;28;20065;-70
2021/12/22 09:07:04;;;;;;;36.75;22.55;;;;;;;;;;5094122;28;20044;-68
2021/12/22 09:09:31;;;;;;;36.90;24.38;;;;;;;;;;5094101;28;20024;-69
2021/12/22 09:11:57;;;;;;;37.10;24.33;;;;;;;;;;5093864;28;20085;-69
2021/12/22 09:14:24;;;;;;;56.33;33.38;;;;;;;;;;5093774;28;20028;-68
2021/12/22 09:16:50;;;;;;;43.35;25.83;;;;;;;;;;5094514;28;20043;-69
2021/12/22 09:19:17;;;;;;;44.80;26.63;;;;;;;;;;5093004;28;20035;-68
2021/12/22 09:21:43;;;;;;;44.03;26.25;;;;;;;;;;5089147;28;20020;-69
2021/12/22 09:24:09;;;;;;;33.85;22.73;;;;;;;;;;5094068;28;20099;-73
2021/12/22 09:26:36;;;;;;;47.22;27.33;;;;;;;;;;5093252;28;20033;-73
2021/12/22 09:29:03;;;;;;;44.03;24.95;;;;;;;;;;5094095;28;20437;-72
2021/12/22 09:31:29;;;;;;;35.88;21.30;;;;;;;;;;5093898;28;20017;-70
2021/12/22 09:33:55;;;;;;;36.40;21.27;;;;;;;;;;5091147;28;20716;-72
2021/12/22 09:36:22;;;;;;;45.08;28.67;;;;;;;;;;5089072;28;20089;-71
2021/12/22 09:38:49;;;;;;;21.40;13.30;;;;;;;;;;5090211;28;20032;-69
2021/12/22 09:41:15;;;;;;;25.58;16.00;;;;;;;;;;5091469;28;20035;-69
2021/12/22 09:43:42;;;;;;;29.15;17.85;;;;;;;;;;5093070;28;20056;-72
2021/12/22 09:46:12;;;;;;;25.90;15.20;;;;;;;;;;5093660;28;20062;-71
2021/12/22 09:48:59;;;;;;;22.85;14.18;;;;;;;;;;5087008;28;20021;-70
2021/12/22 09:53:53;;;;;;;33.60;20.00;;;;;;;;;;5093614;28;20496;-67
2021/12/22 09:56:21;;;;;;;33.75;19.95;;;;;;;;;;5092094;28;20093;-68
2021/12/22 09:58:49;;;;;;;29.88;19.08;;;;;;;;;;5093382;28;20024;-69
2021/12/22 10:01:17;;;;;;;34.38;21.10;;;;;;;;;;5093128;28;20104;-68
2021/12/22 10:03:43;;;;;;;35.20;21.23;;;;;;;;;;5091008;28;20031;-68
2021/12/22 10:06:09;;;;;;;34.30;21.08;;;;;;;;;;5091447;28;20044;-69
2021/12/22 10:08:39;;;;;;;32.40;19.65;;;;;;;;;;5091364;28;20052;-66
2021/12/22 10:11:08;;;;;;;39.45;20.95;;;;;;;;;;5089921;28;20030;-68
2021/12/22 10:13:35;;;;;;;36.72;22.17;;;;;;;;;;5091800;28;20096;-68
2021/12/22 10:16:11;;;;;;;43.95;26.95;;;;;;;;;;5090705;28;20468;-70
2021/12/22 10:18:37;;;;;;;32.75;19.98;;;;;;;;;;5090504;28;20020;-68
2021/12/22 10:21:09;;;;;;;25.42;16.33;;;;;;;;;;5085894;28;20028;-68
2021/12/22 10:23:36;;;;;;;16.77;11.17;;;;;;;;;;5090960;28;20020;-67
2021/12/22 10:26:04;;;;;;;16.67;9.85;;;;;;;;;;5091036;28;20040;-69
2021/12/22 10:28:52;;;;;;;20.45;12.23;;;;;;;;;;5092550;28;20494;-70
2021/12/22 10:31:19;;;;;;;18.85;12.18;;;;;;;;;;5091639;28;20107;-70
2021/12/22 10:33:47;;;;;;;22.52;13.73;;;;;;;;;;5092011;28;20024;-70
2021/12/22 10:36:14;;;;;;;13.07;8.63;;;;;;;;;;5092142;28;20035;-68
2021/12/22 10:38:47;;;;;;;15.32;8.38;;;;;;;;;;5092011;28;20028;-69
2021/12/22 10:41:13;;;;;;;17.55;10.13;;;;;;;;;;5092300;28;20016;-70
2021/12/22 10:43:44;;;;;;;18.20;11.07;;;;;;;;;;5090398;28;20095;-68
2021/12/22 10:46:15;;;;;;;16.73;10.32;;;;;;;;;;5092019;28;20031;-69
2021/12/22 10:51:33;;;;;;;12.63;7.75;;;;;;;;;;5089842;28;20801;-69
2021/12/22 10:54:00;;;;;;;15.20;7.72;;;;;;;;;;5092231;28;20023;-69
2021/12/22 10:56:29;;;;;;;12.02;6.60;;;;;;;;;;5091766;28;20081;-70
2021/12/22 10:59:01;;;;;;;10.52;5.82;;;;;;;;;;5092445;28;20380;-71
2021/12/22 11:01:27;;;;;;;12.40;7.57;;;;;;;;;;5094121;28;20042;-70
2021/12/22 11:04:02;;;;;;;16.50;9.50;;;;;;;;;;5095910;28;20028;-71
2021/12/22 11:06:30;;;;;;;43.40;24.23;;;;;;;;;;5095890;28;20480;-70
2021/12/22 11:08:58;;;;;;;33.10;17.95;;;;;;;;;;5095246;28;20358;-71
2021/12/22 11:11:27;;;;;;;20.05;10.82;;;;;;;;;;5095698;28;20417;-71
2021/12/22 11:14:04;;;;;;;18.55;12.38;;;;;;;;;;5095040;28;20035;-71
2021/12/22 11:16:30;;;;;;;25.52;14.13;;;;;;;;;;5095802;28;20027;-71
2021/12/22 11:19:07;;;;;;;22.13;13.40;;;;;;;;;;5096939;28;20056;-72
2021/12/22 11:21:35;;;;;;;13.10;7.93;;;;;;;;;;5094989;28;20020;-74
2021/12/22 11:28:27;;;;;;;19.40;13.70;;;;;;;;;;5110605;27;20385;-70
2021/12/22 11:30:53;;;;;;;21.98;11.82;;;;;;;;;;5110876;28;20475;-71
2021/12/22 11:33:20;;;;;;;16.20;10.43;;;;;;;;;;5109814;28;20020;-71
2021/12/22 11:35:46;;;;;;;20.50;13.02;;;;;;;;;;5108269;28;20074;-70
2021/12/22 11:38:12;;;;;;;17.05;11.00;;;;;;;;;;5108225;28;20484;-71
2021/12/22 11:40:42;;;;;;;19.80;12.10;;;;;;;;;;5109160;28;20023;-71
2021/12/22 11:43:09;;;;;;;20.95;13.40;;;;;;;;;;5108820;28;20023;-73
2021/12/22 11:45:37;;;;;;;24.35;13.38;;;;;;;;;;5109950;28;20031;-72
2021/12/22 11:48:03;;;;;;;22.17;14.00;;;;;;;;;;5109470;28;20028;-73
2021/12/22 11:51:23;;;;;;;13.07;7.43;;;;;;;;;;5110966;27;20462;-72
2021/12/22 11:53:51;;;;;;;14.03;9.30;;;;;;;;;;5110982;28;20077;-73
2021/12/22 11:58:11;;;;;;;18.63;10.32;;;;;;;;;;5110822;27;20392;-72
2021/12/22 12:03:18;;;;;;;26.20;13.90;;;;;;;;;;5050465;28;20393;-72
2021/12/22 12:06:01;;;;;;;25.55;17.05;;;;;;;;;;5050602;28;20429;-70
2021/12/22 12:09:13;;;;;;;23.98;16.50;;;;;;;;;;5110774;27;20467;-71
2021/12/22 12:23:34;;;;;;;27.02;13.10;;;;;;;;;;5110666;28;20039;-69
2021/12/22 12:26:48;;;;;;;18.15;11.10;;;;;;;;;;5096490;27;1538391;-69
2021/12/22 12:32:41;;;;;;;24.88;15.25;;;;;;;;;;5109583;27;20396;-73
2021/12/22 12:36:08;;;;;;;28.90;17.48;;;;;;;;;;5102513;27;20537;-73
2021/12/22 12:38:40;;;;;;;26.70;16.67;;;;;;;;;;5110134;28;20088;-71
2021/12/22 12:41:11;;;;;;;29.00;18.27;;;;;;;;;;5108017;28;20035;-74
2021/12/22 12:43:52;;;;;;;25.58;16.23;;;;;;;;;;5109979;28;20020;-74
2021/12/22 12:46:23;;;;;;;35.08;22.33;;;;;;;;;;5110423;28;20027;-72
2021/12/22 12:48:53;;;;;;;51.10;28.85;;;;;;;;;;5110397;28;20092;-72
2021/12/22 12:51:20;;;;;;;29.40;18.35;;;;;;;;;;5110119;28;20391;-72
2021/12/22 12:53:48;;;;;;;29.42;19.75;;;;;;;;;;5110248;28;20016;-72
2021/12/22 12:59:14;;;;;;;29.40;18.00;;;;;;;;;;5110202;27;20127;-76
2021/12/22 13:01:51;;;;;;;35.65;21.83;;;;;;;;;;5110913;27;20388;-79
2021/12/22 13:04:27;;;;;;;37.28;21.23;;;;;;;;;;5110108;28;20024;-77
2021/12/22 13:08:20;;;;;;;27.90;17.63;;;;;;;;;;5106777;27;21281;-75
2021/12/22 13:10:51;;;;;;;26.00;18.38;;;;;;;;;;5110538;28;20028;-77
2021/12/22 13:13:20;;;;;;;28.27;18.98;;;;;;;;;;5099566;28;20024;-77
2021/12/22 13:15:47;;;;;;;33.90;19.73;;;;;;;;;;5105028;28;20022;-74
2021/12/22 13:18:13;;;;;;;37.22;19.85;;;;;;;;;;5110541;28;20024;-76
2021/12/22 13:25:15;;;;;;;37.97;21.98;;;;;;;;;;5150440;27;20322;-67
2021/12/22 13:30:54;;;;;;;15.30;8.82;;;;;;;;;;5064353;28;20407;-68
2021/12/22 13:34:42;;;;;;;22.90;12.65;;;;;;;;;;5096552;27;20402;-65
2021/12/22 13:37:09;;;;;;;29.00;16.98;;;;;;;;;;5089332;28;20560;-66
2021/12/22 13:39:45;;;;;;;23.80;15.18;;;;;;;;;;5107589;28;20028;-73
2021/12/22 13:45:05;;;;;;;18.02;9.18;;;;;;;;;;5131230;27;20111;-74
2021/12/22 13:47:32;;;;;;;19.23;11.27;;;;;;;;;;5110209;28;20063;-70
2021/12/22 13:49:58;;;;;;;20.40;12.68;;;;;;;;;;5111046;28;20383;-69
2021/12/22 13:52:25;;;;;;;19.38;13.20;;;;;;;;;;5110413;28;20020;-69
2021/12/22 13:57:46;;;;;;;39.55;24.00;;;;;;;;;;5110669;27;20803;-72
2021/12/22 14:00:18;;;;;;;35.42;21.67;;;;;;;;;;5110664;28;20046;-73
2021/12/22 14:02:46;;;;;;;31.98;20.27;;;;;;;;;;5110300;28;20064;-72
2021/12/22 14:05:17;;;;;;;27.00;17.95;;;;;;;;;;5110414;28;20028;-74
2021/12/22 14:07:43;;;;;;;41.85;24.77;;;;;;;;;;5110655;28;20098;-73
2021/12/22 14:10:12;;;;;;;46.60;27.98;;;;;;;;;;5110284;28;20039;-74
2021/12/22 14:12:40;;;;;;;45.63;27.15;;;;;;;;;;5109647;28;20035;-74
2021/12/22 14:15:08;;;;;;;47.30;25.73;;;;;;;;;;5109553;28;20107;-74
2021/12/22 14:18:11;;;;;;;36.13;21.83;;;;;;;;;;5110324;27;20385;-73
2021/12/22 14:20:39;;;;;;;38.22;22.77;;;;;;;;;;5110622;28;20042;-74
2021/12/22 14:23:05;;;;;;;35.78;24.50;;;;;;;;;;5110489;28;20026;-74
2021/12/22 14:25:32;;;;;;;37.38;22.10;;;;;;;;;;5110622;28;20084;-73
2021/12/22 14:32:12;;;;;;;55.03;31.13;;;;;;;;;;5111827;27;20397;-74
2021/12/22 14:34:57;;;;;;;61.08;33.53;;;;;;;;;;5111148;28;20028;-73
2021/12/22 14:37:29;;;;;;;56.03;29.48;;;;;;;;;;5110742;28;20201;-74
2021/12/22 14:39:56;;;;;;;37.58;22.83;;;;;;;;;;5110918;28;20027;-74
2021/12/22 14:42:26;;;;;;;27.98;19.20;;;;;;;;;;5110941;28;20392;-74
2021/12/22 14:45:56;;;;;;;42.58;24.15;;;;;;;;;;5111435;27;20393;-74
2021/12/22 14:48:30;;;;;;;39.92;24.95;;;;;;;;;;5111392;28;20054;-74
2021/12/22 14:50:56;;;;;;;41.83;26.05;;;;;;;;;;5110842;28;20371;-74
2021/12/22 14:53:31;;;;;;;32.72;22.73;;;;;;;;;;5110996;28;20135;-73
2021/12/22 14:55:58;;;;;;;36.92;25.02;;;;;;;;;;5111015;28;20032;-72
2021/12/22 14:58:26;;;;;;;39.83;28.65;;;;;;;;;;5110851;28;20020;-72
2021/12/22 15:00:52;;;;;;;33.50;22.33;;;;;;;;;;5110771;28;20039;-72
2021/12/22 15:03:19;;;;;;;53.90;29.92;;;;;;;;;;5110814;28;20041;-73
2021/12/22 15:05:58;;;;;;;45.75;27.75;;;;;;;;;;5110423;28;20369;-73
2021/12/22 15:08:25;;;;;;;40.92;24.92;;;;;;;;;;5110758;28;20089;-73
2021/12/22 15:10:51;;;;;;;42.38;25.08;;;;;;;;;;5111010;28;20344;-73
2021/12/22 15:13:18;;;;;;;58.00;33.33;;;;;;;;;;5110333;28;20027;-73
2021/12/22 15:15:45;;;;;;;86.03;43.42;;;;;;;;;;5110528;28;20028;-74
2021/12/22 15:18:11;;;;;;;75.05;39.35;;;;;;;;;;5110831;28;20024;-73
2021/12/22 15:20:37;;;;;;;60.85;33.10;;;;;;;;;;5110139;28;20475;-73
2021/12/22 15:23:03;;;;;;;50.38;26.85;;;;;;;;;;5110369;28;20031;-73
2021/12/22 15:25:30;;;;;;;57.90;33.08;;;;;;;;;;5109958;28;20040;-72
2021/12/22 15:27:56;;;;;;;49.25;28.85;;;;;;;;;;5110524;28;20020;-72
2021/12/22 15:30:22;;;;;;;54.38;33.70;;;;;;;;;;5110229;28;20074;-72
2021/12/22 15:32:49;;;;;;;57.90;33.92;;;;;;;;;;5109919;28;20050;-73
2021/12/22 15:35:16;;;;;;;45.33;27.38;;;;;;;;;;5110248;28;20468;-73
2021/12/22 15:37:42;;;;;;;48.03;30.80;;;;;;;;;;5110074;28;20477;-73